createdAt,value
2023-05-18T00:00:10.950Z,99.90
2023-05-18T00:02:41.372Z,99.90
2023-05-18T00:05:10.394Z,99.90
2023-05-18T00:07:37.498Z,99.90
2023-05-18T00:10:04.814Z,99.90
2023-05-18T00:12:31.689Z,99.90
2023-05-18T00:14:58.679Z,99.90
2023-05-18T00:17:25.631Z,99.90
2023-05-18T00:19:52.734Z,99.90
2023-05-18T00:22:20.068Z,99.90
2023-05-18T00:24:47.889Z,99.90
2023-05-18T00:27:16.214Z,99.90
2023-05-18T00:29:43.141Z,99.90
2023-05-18T00:32:10.129Z,99.90
2023-05-18T00:34:37.075Z,99.90
2023-05-18T00:37:04.259Z,99.90
2023-05-18T00:39:31.371Z,99.90
2023-05-18T00:41:58.369Z,99.90
2023-05-18T00:44:25.567Z,99.90
2023-05-18T00:46:52.522Z,99.90
2023-05-18T00:49:19.677Z,99.90
2023-05-18T00:51:47.098Z,99.90
2023-05-18T00:54:14.921Z,99.90
2023-05-18T00:56:42.235Z,99.90
2023-05-18T00:59:10.435Z,99.90
2023-05-18T01:01:43.413Z,99.90
2023-05-18T01:04:14.107Z,99.90
2023-05-18T01:06:41.935Z,99.90
2023-05-18T01:09:11.800Z,99.90
2023-05-18T01:12:04.552Z,99.90
2023-05-18T01:14:37.416Z,99.90
2023-05-18T01:17:44.007Z,99.90
2023-05-18T01:20:59.562Z,99.90
2023-05-18T01:24:00.940Z,99.90
2023-05-18T01:26:30.153Z,99.90
2023-05-18T01:29:00.725Z,99.90
2023-05-18T01:31:28.966Z,99.90
2023-05-18T01:33:55.983Z,99.90
2023-05-18T01:36:22.934Z,99.90
2023-05-18T01:38:51.361Z,99.90
2023-05-18T01:41:31.375Z,99.90
2023-05-18T01:44:15.693Z,99.90
2023-05-18T01:47:00.627Z,99.90
2023-05-18T01:49:33.495Z,99.90
2023-05-18T01:52:06.320Z,99.90
2023-05-18T01:54:36.253Z,99.90
2023-05-18T01:59:33.847Z,99.90
2023-05-18T02:02:01.482Z,99.90
2023-05-18T02:04:28.800Z,99.90
2023-05-18T02:06:56.145Z,99.90
2023-05-18T02:09:23.429Z,99.90
2023-05-18T02:11:50.493Z,99.90
2023-05-18T02:14:17.565Z,99.90
2023-05-18T02:16:47.241Z,99.90
2023-05-18T02:19:15.070Z,99.90
2023-05-18T02:21:43.596Z,99.90
2023-05-18T02:24:11.794Z,99.90
2023-05-18T02:26:39.313Z,99.90
2023-05-18T02:29:06.658Z,99.90
2023-05-18T02:31:33.676Z,99.90
2023-05-18T02:34:01.412Z,99.90
2023-05-18T02:36:28.389Z,99.90
2023-05-18T02:38:55.645Z,99.90
2023-05-18T02:41:23.278Z,99.90
2023-05-18T02:43:50.149Z,99.90
2023-05-18T02:46:17.130Z,99.90
2023-05-18T02:48:45.957Z,99.90
2023-05-18T02:51:13.552Z,99.90
2023-05-18T02:53:40.502Z,99.90
2023-05-18T02:56:07.730Z,99.90
2023-05-18T02:58:34.870Z,99.90
2023-05-18T03:01:03.509Z,99.90
2023-05-18T03:03:30.466Z,99.90
2023-05-18T03:05:57.472Z,99.90
2023-05-18T03:08:26.946Z,99.90
2023-05-18T03:10:54.101Z,99.90
2023-05-18T03:13:21.132Z,99.90
2023-05-18T03:15:49.278Z,99.90
2023-05-18T03:18:16.569Z,99.90
2023-05-18T03:20:44.267Z,99.90
2023-05-18T03:23:11.377Z,99.90
2023-05-18T03:25:38.256Z,99.90
2023-05-18T03:28:05.683Z,99.90
2023-05-18T03:30:33.741Z,99.90
2023-05-18T03:33:01.969Z,99.90
2023-05-18T03:35:29.589Z,99.90
2023-05-18T03:37:56.863Z,99.90
2023-05-18T03:40:24.994Z,99.90
2023-05-18T03:42:51.956Z,99.90
2023-05-18T03:45:19.110Z,99.90
2023-05-18T03:47:46.272Z,99.90
2023-05-18T03:50:13.223Z,99.90
2023-05-18T03:52:41.444Z,99.90
2023-05-18T03:55:08.753Z,99.90
2023-05-18T03:57:35.761Z,99.90
2023-05-18T04:00:12.265Z,99.90
2023-05-18T04:02:40.116Z,99.90
2023-05-18T04:05:08.272Z,99.90
2023-05-18T04:07:44.063Z,99.90
2023-05-18T04:10:12.808Z,99.90
2023-05-18T04:12:40.336Z,99.90
2023-05-18T04:15:07.941Z,99.90
2023-05-18T04:17:35.678Z,99.90
2023-05-18T04:20:11.557Z,99.90
2023-05-18T04:22:43.379Z,99.90
2023-05-18T04:25:14.116Z,99.90
2023-05-18T04:27:45.549Z,99.90
2023-05-18T04:30:13.782Z,99.90
2023-05-18T04:32:43.255Z,99.90
2023-05-18T04:35:11.630Z,99.90
2023-05-18T04:37:41.592Z,99.90
2023-05-18T04:40:16.924Z,99.90
2023-05-18T04:42:48.409Z,99.90
2023-05-18T04:45:17.770Z,99.90
2023-05-18T04:47:46.709Z,99.90
2023-05-18T04:50:25.910Z,99.90
2023-05-18T04:52:53.918Z,99.90
2023-05-18T04:55:26.391Z,99.90
2023-05-18T04:57:56.545Z,99.90
2023-05-18T05:00:24.941Z,99.90
2023-05-18T05:02:52.425Z,99.90
2023-05-18T05:05:19.538Z,99.90
2023-05-18T05:07:46.448Z,99.90
2023-05-18T05:10:13.389Z,99.90
2023-05-18T05:12:41.279Z,99.90
2023-05-18T05:15:09.569Z,99.90
2023-05-18T05:17:36.734Z,99.90
2023-05-18T05:20:04.344Z,99.90
2023-05-18T05:22:31.308Z,98.10
2023-05-18T05:24:58.185Z,96.70
2023-05-18T05:27:26.220Z,96.40
2023-05-18T05:29:53.177Z,94.60
2023-05-18T05:32:20.064Z,92.70
2023-05-18T05:34:48.057Z,90.40
2023-05-18T05:37:14.922Z,86.70
2023-05-18T05:39:41.994Z,81.30
2023-05-18T05:42:09.424Z,78.80
2023-05-18T05:44:36.702Z,78.10
2023-05-18T05:47:04.187Z,74.40
2023-05-18T05:49:31.083Z,72.10
2023-05-18T05:51:58.109Z,74.10
2023-05-18T05:54:25.181Z,74.40
2023-05-18T05:56:52.235Z,72.10
2023-05-18T05:59:19.118Z,73.00
2023-05-18T06:01:46.070Z,73.70
2023-05-18T06:04:13.037Z,72.30
2023-05-18T06:06:39.997Z,72.00
2023-05-18T06:09:06.986Z,69.50
2023-05-18T06:11:33.956Z,66.50
2023-05-18T06:14:01.098Z,67.70
2023-05-18T06:16:28.082Z,68.50
2023-05-18T06:18:54.981Z,67.90
2023-05-18T06:21:22.516Z,64.00
2023-05-18T06:23:49.416Z,66.90
2023-05-18T06:26:17.003Z,67.10
2023-05-18T06:28:44.005Z,64.90
2023-05-18T06:31:11.141Z,65.40
2023-05-18T06:33:38.497Z,61.90
2023-05-18T06:36:05.761Z,62.00
2023-05-18T06:38:32.665Z,62.10
2023-05-18T06:40:59.629Z,57.70
2023-05-18T06:43:28.390Z,59.40
2023-05-18T06:45:56.388Z,57.70
2023-05-18T06:48:25.751Z,57.80
2023-05-18T06:50:52.742Z,57.00
2023-05-18T06:53:19.651Z,59.20
2023-05-18T06:55:47.059Z,58.90
2023-05-18T06:58:14.030Z,57.70
2023-05-18T07:00:41.105Z,56.20
2023-05-18T07:03:08.530Z,56.50
2023-05-18T07:05:39.145Z,56.90
2023-05-18T07:08:07.245Z,56.60
2023-05-18T07:10:35.801Z,55.20
2023-05-18T07:13:02.948Z,55.30
2023-05-18T07:15:30.420Z,55.10
2023-05-18T07:17:57.625Z,54.50
2023-05-18T07:20:26.451Z,52.50
2023-05-18T07:22:55.808Z,52.90
2023-05-18T07:25:23.392Z,51.40
2023-05-18T07:27:52.211Z,48.90
2023-05-18T07:30:19.240Z,50.50
2023-05-18T07:32:46.309Z,49.40
2023-05-18T07:35:13.585Z,51.60
2023-05-18T07:37:40.503Z,51.80
2023-05-18T07:40:09.839Z,52.10
2023-05-18T07:42:38.399Z,51.00
2023-05-18T07:45:05.963Z,52.40
2023-05-18T07:47:32.917Z,51.40
2023-05-18T07:50:00.229Z,50.70
2023-05-18T07:52:27.128Z,50.60
2023-05-18T07:54:56.531Z,51.30
2023-05-18T07:57:24.621Z,51.20
2023-05-18T07:59:51.711Z,50.90
2023-05-18T08:02:19.954Z,50.40
2023-05-18T08:04:48.249Z,47.50
2023-05-18T08:07:15.265Z,47.10
2023-05-18T08:09:42.365Z,46.70
2023-05-18T08:12:09.363Z,48.10
2023-05-18T08:14:36.359Z,45.80
2023-05-18T08:17:04.713Z,46.90
2023-05-18T08:19:32.033Z,47.30
2023-05-18T08:21:59.145Z,48.70
2023-05-18T08:24:26.189Z,50.20
2023-05-18T08:26:53.206Z,52.00
2023-05-18T08:29:20.124Z,53.50
2023-05-18T08:31:49.185Z,53.20
2023-05-18T08:34:16.723Z,53.40
2023-05-18T08:36:45.661Z,55.20
2023-05-18T08:39:12.862Z,56.40
2023-05-18T08:42:03.257Z,56.90
2023-05-18T08:44:38.376Z,57.40
2023-05-18T08:47:09.673Z,57.70
2023-05-18T08:49:37.259Z,58.60
2023-05-18T08:52:05.580Z,58.30
2023-05-18T08:54:33.409Z,59.80
2023-05-18T08:57:03.153Z,59.80
2023-05-18T08:59:31.884Z,62.70
2023-05-18T09:01:59.227Z,61.80
2023-05-18T09:04:27.206Z,62.30
2023-05-18T09:06:56.465Z,62.80
2023-05-18T09:09:25.169Z,62.70
2023-05-18T09:11:52.443Z,61.70
2023-05-18T09:14:19.825Z,63.00
2023-05-18T09:16:47.181Z,63.50
2023-05-18T09:19:14.399Z,63.80
2023-05-18T09:21:42.590Z,64.30
2023-05-18T09:24:09.825Z,63.30
2023-05-18T09:26:37.922Z,65.90
2023-05-18T09:29:19.847Z,65.70
2023-05-18T09:31:48.429Z,64.50
2023-05-18T09:34:18.920Z,64.40
2023-05-18T09:36:57.709Z,66.60
2023-05-18T09:39:25.496Z,67.70
2023-05-18T09:41:57.776Z,66.50
2023-05-18T09:44:34.972Z,67.50
2023-05-18T09:47:03.170Z,68.70
2023-05-18T09:49:33.507Z,67.10
2023-05-18T09:52:00.517Z,67.90
2023-05-18T09:54:27.668Z,68.20
2023-05-18T09:57:08.846Z,68.80
2023-05-18T09:59:37.134Z,67.30
2023-05-18T10:02:12.049Z,63.70
2023-05-18T10:04:41.536Z,64.00
2023-05-18T10:07:16.741Z,65.20
2023-05-18T10:09:45.346Z,65.60
2023-05-18T10:12:12.976Z,66.40
2023-05-18T10:14:44.686Z,66.40
2023-05-18T10:17:17.223Z,62.80
2023-05-18T10:19:45.800Z,61.70
2023-05-18T10:22:16.653Z,63.10
2023-05-18T10:24:50.190Z,63.00
2023-05-18T10:27:19.986Z,63.40
2023-05-18T10:29:47.472Z,64.70
2023-05-18T10:32:16.807Z,64.30
2023-05-18T10:34:45.319Z,63.20
2023-05-18T10:37:14.477Z,62.80
2023-05-18T10:39:45.715Z,62.60
2023-05-18T10:42:16.102Z,63.00
2023-05-18T10:44:44.756Z,61.70
2023-05-18T10:47:15.128Z,62.70
2023-05-18T10:49:49.427Z,62.70
2023-05-18T10:52:20.930Z,62.70
2023-05-18T10:54:49.070Z,64.50
2023-05-18T10:57:19.980Z,65.20
2023-05-18T10:59:48.504Z,66.30
2023-05-18T11:02:18.467Z,61.80
2023-05-18T11:04:47.944Z,63.30
2023-05-18T11:07:15.935Z,62.40
2023-05-18T11:09:44.397Z,61.00
2023-05-18T11:12:18.940Z,61.00
2023-05-18T11:14:55.098Z,61.90
2023-05-18T11:17:23.907Z,62.90
2023-05-18T11:20:09.528Z,64.90
2023-05-18T11:22:44.987Z,64.80
2023-05-18T11:25:24.479Z,64.60
2023-05-18T11:27:53.436Z,62.30
2023-05-18T11:30:36.479Z,64.50
2023-05-18T11:33:15.049Z,63.10
2023-05-18T11:36:07.597Z,61.00
2023-05-18T11:39:11.393Z,59.00
2023-05-18T11:41:44.589Z,63.30
2023-05-18T11:44:12.425Z,61.90
2023-05-18T11:47:04.870Z,60.00
2023-05-18T11:49:38.447Z,61.10
2023-05-18T11:52:22.492Z,63.30
2023-05-18T11:54:53.630Z,64.70
2023-05-18T11:57:39.011Z,65.00
2023-05-18T12:00:10.609Z,63.30
2023-05-18T12:02:40.177Z,61.70
2023-05-18T12:05:09.275Z,59.10
2023-05-18T12:07:38.341Z,59.90
2023-05-18T12:10:21.601Z,62.00
2023-05-18T12:12:53.549Z,59.00
2023-05-18T12:15:23.486Z,59.10
2023-05-18T12:17:52.904Z,59.30
2023-05-18T12:20:25.476Z,61.40
2023-05-18T12:22:55.694Z,60.40
2023-05-18T12:25:25.159Z,60.10
2023-05-18T12:27:56.209Z,59.40
2023-05-18T12:30:26.612Z,57.80
2023-05-18T12:32:56.868Z,58.40
2023-05-18T12:35:29.025Z,59.80
2023-05-18T12:38:00.885Z,59.10
2023-05-18T12:40:38.640Z,59.50
2023-05-18T12:43:06.636Z,60.70
2023-05-18T12:45:35.427Z,60.00
2023-05-18T12:48:13.652Z,60.60
2023-05-18T12:50:48.293Z,63.20
2023-05-18T12:53:16.465Z,60.80
2023-05-18T12:55:43.644Z,60.00
2023-05-18T12:58:19.264Z,62.70
2023-05-18T13:00:49.165Z,60.30
2023-05-18T13:03:20.788Z,60.10
2023-05-18T13:06:04.264Z,60.60
2023-05-18T13:08:32.675Z,61.70
2023-05-18T13:11:18.008Z,61.10
2023-05-18T13:13:58.512Z,59.70
2023-05-18T13:16:26.130Z,59.90
2023-05-18T13:18:57.958Z,61.40
2023-05-18T13:21:25.683Z,61.50
2023-05-18T13:23:53.049Z,60.20
2023-05-18T13:26:22.468Z,60.70
2023-05-18T13:28:54.429Z,62.20
2023-05-18T13:31:22.313Z,61.40
2023-05-18T13:33:50.016Z,63.30
2023-05-18T13:36:17.951Z,61.10
2023-05-18T13:38:45.311Z,60.70
2023-05-18T13:41:15.387Z,61.00
2023-05-18T13:43:42.841Z,60.90
2023-05-18T13:46:10.296Z,60.40
2023-05-18T13:48:37.702Z,61.00
2023-05-18T13:51:05.398Z,60.90
2023-05-18T13:53:32.829Z,60.50
2023-05-18T13:55:59.953Z,60.60
2023-05-18T13:58:26.955Z,61.20
2023-05-18T14:00:54.777Z,61.10
2023-05-18T14:03:22.085Z,61.10
2023-05-18T14:05:49.753Z,63.20
2023-05-18T14:08:17.174Z,60.40
2023-05-18T14:10:44.400Z,59.80
2023-05-18T14:13:11.536Z,59.50
2023-05-18T14:15:38.681Z,59.90
2023-05-18T14:18:06.059Z,60.90
2023-05-18T14:20:34.044Z,60.50
2023-05-18T14:23:04.900Z,61.70
2023-05-18T14:25:32.691Z,60.40
2023-05-18T14:27:59.952Z,60.40
2023-05-18T14:30:26.995Z,61.00
2023-05-18T14:32:54.049Z,60.60
2023-05-18T14:35:21.036Z,60.00
2023-05-18T14:37:48.051Z,60.20
2023-05-18T14:40:15.242Z,61.10
2023-05-18T14:42:42.287Z,60.00
2023-05-18T14:45:10.094Z,59.80
2023-05-18T14:47:37.164Z,59.70
2023-05-18T14:50:04.384Z,60.50
2023-05-18T14:52:31.492Z,58.70
2023-05-18T14:54:58.575Z,59.60
2023-05-18T14:57:27.005Z,59.80
2023-05-18T14:59:54.529Z,59.90
2023-05-18T15:02:22.283Z,59.60
2023-05-18T15:04:49.624Z,58.90
2023-05-18T15:07:16.656Z,59.40
2023-05-18T15:09:43.688Z,60.20
2023-05-18T15:12:10.914Z,61.00
2023-05-18T15:14:38.197Z,59.30
2023-05-18T15:17:07.309Z,57.60
2023-05-18T15:19:34.381Z,58.10
2023-05-18T15:22:01.526Z,57.80
2023-05-18T15:24:28.873Z,57.90
2023-05-18T15:26:56.000Z,58.10
2023-05-18T15:29:23.508Z,59.90
2023-05-18T15:31:51.524Z,60.00
2023-05-18T15:34:18.613Z,60.30
2023-05-18T15:36:46.236Z,60.80
2023-05-18T15:39:13.628Z,61.20
2023-05-18T15:41:40.749Z,60.40
2023-05-18T15:44:07.865Z,60.50
2023-05-18T15:46:35.877Z,60.10
2023-05-18T15:49:04.001Z,61.60
2023-05-18T15:51:31.508Z,59.00
2023-05-18T15:53:58.447Z,59.70
2023-05-18T15:56:25.792Z,58.80
2023-05-18T15:58:52.861Z,61.00
2023-05-18T16:01:41.359Z,60.40
2023-05-18T16:04:26.922Z,62.50
2023-05-18T16:06:53.955Z,59.80
2023-05-18T16:09:20.830Z,60.10
2023-05-18T16:11:47.759Z,59.50
2023-05-18T16:14:14.753Z,59.90
2023-05-18T16:16:41.618Z,59.50
2023-05-18T16:19:08.658Z,58.10
2023-05-18T16:21:53.987Z,59.20
2023-05-18T16:24:20.828Z,59.90
2023-05-18T16:26:47.676Z,59.90
2023-05-18T16:29:14.646Z,58.60
2023-05-18T16:31:41.700Z,58.50
2023-05-18T16:34:08.631Z,58.50
2023-05-18T16:36:36.555Z,60.80
2023-05-18T16:39:03.618Z,59.50
2023-05-18T16:41:30.547Z,61.30
2023-05-18T16:43:57.361Z,59.20
2023-05-18T16:46:24.525Z,62.80
2023-05-18T16:48:51.484Z,60.80
2023-05-18T16:51:18.528Z,62.70
2023-05-18T16:53:45.538Z,59.60
2023-05-18T16:56:12.616Z,59.40
2023-05-18T16:58:39.525Z,59.30
2023-05-18T17:01:19.256Z,59.70
2023-05-18T17:03:53.371Z,60.50
2023-05-18T17:06:21.248Z,60.70
2023-05-18T17:08:50.516Z,62.30
2023-05-18T17:11:17.394Z,62.60
2023-05-18T17:13:44.636Z,61.80
2023-05-18T17:16:14.159Z,61.30
2023-05-18T17:18:41.489Z,61.40
2023-05-18T17:21:08.414Z,62.60
2023-05-18T17:23:35.761Z,64.20
2023-05-18T17:26:06.621Z,63.70
2023-05-18T17:28:33.884Z,64.30
2023-05-18T17:31:00.794Z,64.50
2023-05-18T17:33:27.882Z,63.90
2023-05-18T17:35:55.332Z,64.80
2023-05-18T17:38:22.722Z,66.40
2023-05-18T17:40:49.710Z,66.40
2023-05-18T17:43:16.644Z,65.00
2023-05-18T17:45:43.618Z,66.00
2023-05-18T17:48:10.984Z,66.80
2023-05-18T17:50:38.131Z,66.60
2023-05-18T17:53:05.144Z,66.00
2023-05-18T17:55:32.357Z,65.90
2023-05-18T17:58:01.054Z,64.10
2023-05-18T18:00:28.546Z,64.30
2023-05-18T18:02:55.738Z,63.20
2023-05-18T18:05:23.000Z,65.10
2023-05-18T18:07:50.280Z,64.20
2023-05-18T18:10:17.661Z,65.60
2023-05-18T18:12:44.668Z,66.40
2023-05-18T18:15:11.967Z,65.20
2023-05-18T18:17:39.110Z,66.60
2023-05-18T18:20:06.860Z,66.70
2023-05-18T18:22:35.690Z,65.50
2023-05-18T18:25:03.187Z,66.10
2023-05-18T18:27:30.135Z,66.50
2023-05-18T18:29:57.330Z,66.10
2023-05-18T18:32:24.302Z,66.20
2023-05-18T18:34:51.610Z,66.60
2023-05-18T18:37:18.627Z,67.90
2023-05-18T18:39:45.647Z,67.40
2023-05-18T18:42:12.657Z,67.60
2023-05-18T18:44:42.256Z,67.50
2023-05-18T18:47:09.115Z,68.00
2023-05-18T18:49:36.162Z,68.00
2023-05-18T18:52:03.223Z,68.40
2023-05-18T18:54:30.238Z,67.70
2023-05-18T18:56:57.621Z,68.60
2023-05-18T18:59:24.548Z,68.70
2023-05-18T19:01:51.554Z,68.80
2023-05-18T19:04:20.283Z,68.50
2023-05-18T19:06:48.360Z,68.80
2023-05-18T19:09:15.703Z,69.70
2023-05-18T19:11:49.634Z,70.60
2023-05-18T19:14:19.996Z,70.30
2023-05-18T19:16:59.539Z,70.10
2023-05-18T19:19:30.779Z,69.50
2023-05-18T19:21:57.889Z,70.40
2023-05-18T19:24:25.517Z,71.10
2023-05-18T19:26:52.498Z,71.50
2023-05-18T19:29:20.211Z,72.20
2023-05-18T19:31:47.229Z,72.10
2023-05-18T19:34:14.233Z,72.40
2023-05-18T19:36:41.257Z,72.70
2023-05-18T19:39:08.176Z,72.40
2023-05-18T19:41:36.140Z,73.20
2023-05-18T19:44:03.162Z,73.30
2023-05-18T19:46:30.105Z,74.30
2023-05-18T19:48:57.294Z,74.30
2023-05-18T19:51:24.210Z,74.80
2023-05-18T19:53:51.032Z,74.90
2023-05-18T19:56:17.983Z,74.50
2023-05-18T19:58:44.978Z,75.60
2023-05-18T20:01:11.900Z,75.00
2023-05-18T20:03:40.790Z,74.70
2023-05-18T20:06:10.186Z,75.80
2023-05-18T20:08:37.912Z,75.80
2023-05-18T20:11:04.869Z,76.30
2023-05-18T20:13:31.828Z,76.30
2023-05-18T20:16:08.665Z,76.80
2023-05-18T20:18:53.883Z,77.40
2023-05-18T20:21:38.218Z,77.50
2023-05-18T20:24:05.604Z,78.30
2023-05-18T20:26:32.737Z,78.70
2023-05-18T20:28:59.992Z,79.00
2023-05-18T20:31:27.734Z,79.70
2023-05-18T20:33:57.521Z,79.70
2023-05-18T20:36:25.348Z,80.40
2023-05-18T20:38:54.224Z,80.00
2023-05-18T20:41:22.761Z,81.30
2023-05-18T20:43:51.192Z,81.20
2023-05-18T20:46:24.957Z,81.60
2023-05-18T20:48:55.058Z,81.60
2023-05-18T20:51:23.230Z,81.70
2023-05-18T20:53:50.620Z,83.00
2023-05-18T20:56:18.935Z,82.70
2023-05-18T20:58:48.750Z,83.30
2023-05-18T21:01:21.045Z,83.50
2023-05-18T21:03:48.463Z,84.10
2023-05-18T21:06:15.817Z,84.40
2023-05-18T21:08:45.623Z,84.90
2023-05-18T21:11:12.630Z,85.00
2023-05-18T21:13:39.665Z,85.80
2023-05-18T21:18:57.241Z,86.90
2023-05-18T21:21:24.240Z,87.00
2023-05-18T21:23:51.360Z,87.10
2023-05-18T21:26:18.314Z,86.90
2023-05-18T21:28:45.659Z,87.30
2023-05-18T21:31:12.625Z,88.10
2023-05-18T21:33:39.835Z,88.50
2023-05-18T21:36:09.017Z,88.40
2023-05-18T21:38:36.096Z,88.50
2023-05-18T21:41:03.273Z,89.10
2023-05-18T21:43:30.260Z,89.60
2023-05-18T21:45:57.238Z,90.20
2023-05-18T21:48:24.127Z,90.20
2023-05-18T21:50:51.169Z,90.50
2023-05-18T21:53:18.901Z,90.80
2023-05-18T21:55:45.773Z,90.80
2023-05-18T21:58:12.697Z,91.40
2023-05-18T22:00:39.698Z,91.20
2023-05-18T22:03:06.781Z,91.60
2023-05-18T22:05:33.782Z,91.80
2023-05-18T22:08:00.784Z,92.00
2023-05-18T22:10:28.137Z,92.10
2023-05-18T22:12:55.088Z,92.30
2023-05-18T22:15:22.735Z,92.30
2023-05-18T22:17:49.839Z,92.60
2023-05-18T22:20:17.142Z,93.00
2023-05-18T22:22:44.244Z,93.10
2023-05-18T22:25:11.356Z,93.20
2023-05-18T22:27:38.965Z,93.70
2023-05-18T22:30:07.480Z,93.70
2023-05-18T22:32:34.740Z,93.50
2023-05-18T22:35:02.075Z,94.30
2023-05-18T22:37:29.067Z,94.10
2023-05-18T22:39:56.126Z,94.20
2023-05-18T22:42:23.122Z,94.60
2023-05-18T22:44:50.115Z,94.60
2023-05-18T22:47:20.082Z,95.00
2023-05-18T22:49:49.147Z,95.20
2023-05-18T22:52:17.942Z,95.30
2023-05-18T22:54:45.119Z,95.80
2023-05-18T22:57:12.801Z,95.90
2023-05-18T22:59:40.044Z,96.30
2023-05-18T23:02:07.275Z,96.40
2023-05-18T23:04:35.413Z,96.60
2023-05-18T23:07:04.143Z,96.90
2023-05-18T23:09:31.370Z,97.30
2023-05-18T23:12:01.242Z,97.50
2023-05-18T23:14:32.559Z,97.20
2023-05-18T23:17:03.701Z,98.20
2023-05-18T23:19:30.672Z,97.80
2023-05-18T23:21:57.720Z,98.20
2023-05-18T23:24:24.763Z,98.20
2023-05-18T23:26:51.866Z,98.30
2023-05-18T23:29:18.860Z,98.60
2023-05-18T23:31:46.100Z,98.90
2023-05-18T23:34:13.399Z,99.10
2023-05-18T23:36:42.788Z,99.50
2023-05-18T23:39:10.594Z,99.30
2023-05-18T23:41:39.138Z,99.50
2023-05-18T23:44:06.961Z,99.70
2023-05-18T23:46:35.025Z,99.70
2023-05-18T23:49:02.436Z,99.90
2023-05-18T23:51:35.822Z,99.90
2023-05-18T23:54:09.419Z,99.90
2023-05-18T23:56:36.891Z,99.90
2023-05-18T23:59:04.279Z,99.90
